Řízení letového provozu České republiky  
Aktualizace dat:  31.07.2015 19:18:08 UTC English version
   METEO Zobrazení stránky:  31.07.2015 19:21:36 UTC  
vysvětlivky
METAR EDDB 311850Z 32007KT CAVOK 15/06 Q1018 NOSIG=
METAR EDDC 311850Z 02005KT CAVOK 16/06 Q1018 NOSIG=
METAR EDDE 311850Z VRB05KT CAVOK 16/04 Q1018 NOSIG=
METAR EDDF 311850Z 02012KT CAVOK 21/04 Q1015 NOSIG=
METAR EDDM 311850Z 06004KT CAVOK 19/06 Q1015 NOSIG=
METAR EDDN 311850Z VRB02KT CAVOK 20/06 Q1015 NOSIG=
METAR EDDP 311850Z 02007KT CAVOK 16/06 Q1018 NOSIG=
METAR EDDT 311850Z 29003KT CAVOK 16/06 Q1018 NOSIG=
METAR EDQM 311750Z 03005KT CAVOK 18/04 Q1018=
METAR EPBY 311900Z 21002KT CAVOK 14/09 Q1018 =
METAR EPGD 311900Z 25005KT 9999 FEW043 12/08 Q1017 =
METAR EPKK 311900Z 36003KT CAVOK 15/07 Q1018 =
METAR EPKT 311900Z 01003KT CAVOK 15/05 Q1018 =
METAR EPLL 311900Z 30001KT CAVOK 14/05 Q1019 =
METAR EPPO 311900Z 30003KT CAVOK 16/06 Q1019 =
METAR EPRZ 311900Z 33003KT CAVOK 16/09 Q1018 =
METAR EPWA 311900Z 29005KT CAVOK 14/08 Q1018 NOSIG=
METAR EPWR 311900Z 02003KT CAVOK 16/08 Q1020 =
METAR LHBP 311900Z 00000KT CAVOK 17/10 Q1017 NOSIG=
METAR LHSM 311545Z 09004KT CAVOK 24/10 Q1017 NOSIG=
METAR LKCV 311900Z 05004KT CAVOK 19/06 Q1018 NOSIG=
METAR LKKB 311900Z 05003KT 020V090 CAVOK 18/06 Q1017 NOSIG=
METAR LKKU NIL
METAR LKKV 311900Z 05005KT CAVOK 15/07 Q1018 RMK REG QNH 1014=
METAR LKLN 311900Z AUTO 07005KT 040V100 CAVOK 20/06 Q1017=
METAR LKMT 311900Z 02005KT CAVOK 16/08 Q1018 NOSIG RMK REG QNH 1014=
METAR LKNA 311900Z 05005KT CAVOK 18/06 Q1018 NOSIG=
METAR LKPD 311900Z VRB02KT CAVOK 19/05 Q1018 NOSIG=
METAR LKPR 311900Z 04006KT CAVOK 18/06 Q1017 NOSIG RMK REG QNH 1014=
METAR LKTB 311900Z 06006KT CAVOK 20/07 Q1017 NOSIG RMK REG QNH 1014=
METAR LKVO NIL
METAR LOWI 311850Z VRB01KT 9999 FEW070 BKN250 19/13 Q1014 NOSIG=
METAR LOWL 311850Z 08005KT CAVOK 20/05 Q1015 NOSIG=
METAR LOWS 311850Z 03007KT CAVOK 21/09 Q1014 NOSIG=
METAR LOWW 311850Z 11003KT CAVOK 21/06 Q1017 NOSIG=
METAR LZIB 311900Z 03002KT CAVOK 20/07 Q1017=
METAR LZKZ 311900Z 35006KT CAVOK 17/09 Q1017=
METAR LZPP 311900Z VRB01KT CAVOK 19/07 Q1017=
METAR LZSL 311900Z 05004KT CAVOK 16/09 Q1018=
METAR LZTT 311900Z 28004KT 220V340 9999 FEW066 12/06 Q1019=
METAR LZZI 311900Z 15003KT CAVOK 15/09 Q1018=